createdAt,value
2018-06-02T00:00:37.918Z,0.00
2018-06-02T00:01:42.420Z,0.00
2018-06-02T00:02:47.934Z,0.00
2018-06-02T00:03:53.458Z,0.00
2018-06-02T00:04:58.989Z,0.00
2018-06-02T00:06:04.494Z,0.00
2018-06-02T00:07:11.010Z,0.00
2018-06-02T00:08:15.528Z,0.00
2018-06-02T00:09:21.067Z,0.00
2018-06-02T00:10:26.565Z,0.00
2018-06-02T00:11:32.081Z,0.00
2018-06-02T00:12:37.596Z,0.00
2018-06-02T00:13:44.124Z,0.00
2018-06-02T00:14:48.628Z,0.00
2018-06-02T00:15:54.154Z,0.00
2018-06-02T00:16:59.659Z,0.00
2018-06-02T00:18:05.192Z,0.00
2018-06-02T00:19:10.695Z,0.00
2018-06-02T00:20:17.248Z,0.00
2018-06-02T00:21:21.731Z,0.00
2018-06-02T00:22:27.255Z,0.00
2018-06-02T00:23:32.758Z,0.00
2018-06-02T00:24:38.281Z,0.00
2018-06-02T00:25:43.801Z,0.00
2018-06-02T00:26:50.331Z,0.00
2018-06-02T00:27:54.832Z,0.00
2018-06-02T00:29:00.362Z,0.00
2018-06-02T00:30:05.860Z,0.00
2018-06-02T00:31:11.407Z,0.00
2018-06-02T00:32:16.902Z,0.00
2018-06-02T00:33:23.423Z,0.00
2018-06-02T00:34:27.937Z,0.00
2018-06-02T00:35:33.454Z,0.00
2018-06-02T00:36:38.977Z,0.00
2018-06-02T00:37:44.501Z,0.00
2018-06-02T00:38:50.002Z,0.00
2018-06-02T00:39:56.524Z,0.00
2018-06-02T00:41:01.037Z,0.00
2018-06-02T00:42:06.554Z,0.00
2018-06-02T00:43:12.085Z,0.00
2018-06-02T00:44:17.586Z,0.00
2018-06-02T00:45:23.101Z,0.00
2018-06-02T00:46:29.629Z,0.00
2018-06-02T00:47:34.143Z,0.00
2018-06-02T00:48:39.671Z,0.00
2018-06-02T00:49:45.188Z,0.00
2018-06-02T00:50:50.698Z,0.00
2018-06-02T00:51:56.214Z,0.00
2018-06-02T00:53:02.740Z,0.00
2018-06-02T00:54:07.240Z,0.00
2018-06-02T00:55:12.771Z,0.00
2018-06-02T00:56:18.275Z,0.00
2018-06-02T00:57:23.801Z,0.00
2018-06-02T00:58:29.322Z,0.00
2018-06-02T00:59:35.862Z,0.00
2018-06-02T01:00:40.344Z,0.00
2018-06-02T01:01:45.897Z,0.00
2018-06-02T01:02:51.382Z,0.00
2018-06-02T01:03:56.903Z,0.00
2018-06-02T01:05:02.410Z,0.00
2018-06-02T01:06:08.932Z,0.00
2018-06-02T01:07:13.457Z,0.00
2018-06-02T01:08:18.960Z,0.00
2018-06-02T01:09:24.499Z,0.00
2018-06-02T01:10:29.992Z,0.00
2018-06-02T01:11:35.532Z,0.00
2018-06-02T01:12:42.075Z,0.00
2018-06-02T01:13:46.539Z,0.00
2018-06-02T01:14:52.065Z,0.00
2018-06-02T01:15:57.579Z,0.00
2018-06-02T01:17:03.110Z,0.00
2018-06-02T01:18:08.637Z,0.00
2018-06-02T01:19:15.140Z,0.00
2018-06-02T01:20:19.646Z,0.00
2018-06-02T01:21:25.168Z,0.00
2018-06-02T01:22:30.699Z,0.00
2018-06-02T01:23:36.217Z,0.00
2018-06-02T01:24:41.724Z,0.00
2018-06-02T01:25:48.255Z,0.00
2018-06-02T01:26:52.788Z,0.00
2018-06-02T01:27:58.295Z,0.00
2018-06-02T01:29:03.808Z,0.00
2018-06-02T01:30:09.301Z,0.00
2018-06-02T01:31:14.817Z,0.00
2018-06-02T01:32:21.350Z,0.00
2018-06-02T01:33:25.863Z,0.00
2018-06-02T01:34:31.372Z,0.00
2018-06-02T01:35:36.902Z,0.00
2018-06-02T01:36:42.403Z,0.00
2018-06-02T01:37:47.939Z,0.00
2018-06-02T01:38:54.466Z,0.00
2018-06-02T01:39:58.964Z,0.00
2018-06-02T01:41:04.512Z,0.00
2018-06-02T01:42:09.994Z,0.00
2018-06-02T01:43:15.499Z,0.00
2018-06-02T01:44:21.019Z,0.00
2018-06-02T01:45:27.566Z,0.00
2018-06-02T01:46:32.060Z,0.00
2018-06-02T01:47:37.575Z,0.00
2018-06-02T01:48:43.090Z,0.00
2018-06-02T01:49:48.631Z,0.00
2018-06-02T01:50:54.119Z,0.00
2018-06-02T01:52:00.665Z,0.00
2018-06-02T01:53:05.165Z,0.00
2018-06-02T01:54:10.688Z,0.00
2018-06-02T01:55:16.200Z,0.00
2018-06-02T01:56:21.709Z,0.00
2018-06-02T01:57:27.228Z,0.00
2018-06-02T01:58:33.766Z,0.00
2018-06-02T01:59:38.263Z,0.00
2018-06-02T02:00:43.771Z,0.00
2018-06-02T02:01:49.301Z,0.00
2018-06-02T02:02:54.812Z,0.00
2018-06-02T02:04:00.339Z,0.00
2018-06-02T02:05:06.880Z,0.00
2018-06-02T02:06:11.362Z,0.00
2018-06-02T02:07:16.880Z,0.00
2018-06-02T02:08:22.404Z,0.00
2018-06-02T02:09:27.921Z,0.00
2018-06-02T02:10:33.428Z,0.00
2018-06-02T02:11:39.963Z,0.00
2018-06-02T02:12:44.469Z,0.00
2018-06-02T02:13:50.003Z,0.00
2018-06-02T02:14:55.492Z,0.00
2018-06-02T02:16:01.010Z,0.00
2018-06-02T02:17:06.532Z,0.00
2018-06-02T02:18:13.061Z,0.00
2018-06-02T02:19:17.565Z,0.00
2018-06-02T02:20:23.097Z,0.00
2018-06-02T02:21:28.606Z,0.00
2018-06-02T02:22:34.112Z,0.00
2018-06-02T02:23:39.627Z,0.00
2018-06-02T02:24:46.163Z,0.00
2018-06-02T02:25:50.669Z,0.00
2018-06-02T02:26:56.194Z,0.00
2018-06-02T02:28:01.695Z,0.00
2018-06-02T02:29:07.224Z,0.00
2018-06-02T02:30:12.728Z,0.00
2018-06-02T02:31:19.878Z,0.00
2018-06-02T02:32:23.770Z,0.00
2018-06-02T02:33:29.278Z,0.00
2018-06-02T02:34:34.816Z,0.00
2018-06-02T02:35:40.331Z,0.00
2018-06-02T02:36:45.848Z,0.00
2018-06-02T02:37:52.360Z,0.00
2018-06-02T02:38:56.881Z,0.00
2018-06-02T02:40:02.390Z,0.00
2018-06-02T02:41:07.908Z,0.00
2018-06-02T02:42:13.431Z,0.00
2018-06-02T02:43:18.937Z,0.00
2018-06-02T02:44:25.467Z,0.00
2018-06-02T02:45:29.971Z,0.00
2018-06-02T02:46:35.482Z,0.00
2018-06-02T02:47:41.003Z,0.00
2018-06-02T02:48:46.532Z,0.00
2018-06-02T02:49:52.029Z,0.00
2018-06-02T02:50:58.560Z,0.00
2018-06-02T02:52:03.085Z,0.00
2018-06-02T02:53:08.587Z,0.00
2018-06-02T02:54:14.103Z,0.00
2018-06-02T02:55:19.625Z,0.00
2018-06-02T02:56:25.169Z,0.00
2018-06-02T02:57:31.660Z,0.00
2018-06-02T02:58:36.175Z,0.00
2018-06-02T02:59:41.690Z,0.00
2018-06-02T03:00:47.206Z,0.00
2018-06-02T03:01:52.729Z,0.00
2018-06-02T03:02:58.238Z,0.00
2018-06-02T03:04:04.770Z,0.00
2018-06-02T03:05:09.274Z,0.00
2018-06-02T03:06:14.786Z,0.00
2018-06-02T03:07:20.302Z,0.00
2018-06-02T03:08:25.826Z,0.00
2018-06-02T03:09:31.340Z,0.00
2018-06-02T03:10:37.861Z,0.00
2018-06-02T03:11:42.382Z,0.00
2018-06-02T03:12:47.884Z,0.00
2018-06-02T03:13:53.400Z,0.00
2018-06-02T03:14:58.925Z,0.00
2018-06-02T03:16:04.449Z,0.00
2018-06-02T03:17:10.968Z,0.00
2018-06-02T03:18:15.477Z,0.00
2018-06-02T03:19:20.991Z,0.00
2018-06-02T03:20:26.514Z,0.00
2018-06-02T03:21:32.027Z,0.00
2018-06-02T03:22:37.563Z,0.00
2018-06-02T03:23:44.063Z,0.00
2018-06-02T03:24:48.567Z,0.00
2018-06-02T03:25:54.090Z,0.00
2018-06-02T03:26:59.605Z,0.00
2018-06-02T03:28:05.128Z,0.00
2018-06-02T03:29:10.653Z,0.00
2018-06-02T03:30:17.164Z,0.00
2018-06-02T03:31:21.674Z,0.00
2018-06-02T03:32:27.245Z,0.00
2018-06-02T03:33:32.712Z,0.00
2018-06-02T03:34:38.234Z,0.00
2018-06-02T03:35:43.741Z,0.00
2018-06-02T03:36:50.355Z,0.00
2018-06-02T03:37:54.770Z,0.00
2018-06-02T03:39:00.294Z,0.00
2018-06-02T03:40:05.812Z,0.00
2018-06-02T03:41:11.331Z,0.00
2018-06-02T03:42:16.848Z,0.00
2018-06-02T03:43:23.369Z,0.00
2018-06-02T03:44:27.884Z,0.00
2018-06-02T03:45:33.390Z,0.00
2018-06-02T03:46:38.914Z,0.00
2018-06-02T03:47:44.436Z,0.00
2018-06-02T03:48:49.954Z,0.00
2018-06-02T03:49:56.466Z,0.00
2018-06-02T03:51:00.977Z,0.00
2018-06-02T03:52:06.503Z,0.00
2018-06-02T03:53:12.008Z,0.00
2018-06-02T03:54:17.534Z,0.00
2018-06-02T03:55:23.045Z,0.00
2018-06-02T03:56:29.574Z,0.00
2018-06-02T03:57:34.075Z,0.00
2018-06-02T03:58:39.601Z,0.00
2018-06-02T03:59:45.112Z,0.00
2018-06-02T04:00:50.631Z,0.00
2018-06-02T04:01:56.158Z,0.00
2018-06-02T04:03:02.676Z,0.00
2018-06-02T04:04:07.181Z,0.00
2018-06-02T04:05:12.700Z,0.00
2018-06-02T04:06:18.219Z,0.00
2018-06-02T04:07:23.769Z,0.00
2018-06-02T04:08:29.256Z,0.00
2018-06-02T04:09:35.775Z,0.00
2018-06-02T04:10:40.279Z,0.00
2018-06-02T04:11:45.802Z,0.00
2018-06-02T04:12:51.320Z,0.00
2018-06-02T04:13:56.835Z,0.00
2018-06-02T04:15:02.348Z,0.00
2018-06-02T04:16:08.886Z,0.00
2018-06-02T04:17:13.378Z,0.00
2018-06-02T04:18:18.903Z,0.00
2018-06-02T04:19:24.433Z,0.00
2018-06-02T04:20:29.933Z,0.00
2018-06-02T04:21:35.449Z,0.00
2018-06-02T04:22:41.971Z,0.00
2018-06-02T04:23:46.487Z,0.00
2018-06-02T04:24:52.006Z,0.00
2018-06-02T04:25:57.518Z,0.00
2018-06-02T04:27:03.037Z,0.00
2018-06-02T04:28:08.553Z,0.00
2018-06-02T04:29:15.089Z,0.00
2018-06-02T04:30:19.680Z,0.00
2018-06-02T04:31:25.122Z,0.00
2018-06-02T04:32:30.634Z,0.00
2018-06-02T04:33:36.148Z,0.00
2018-06-02T04:34:41.653Z,0.00
2018-06-02T04:35:48.181Z,0.00
2018-06-02T04:36:52.681Z,0.00
2018-06-02T04:37:58.213Z,0.00
2018-06-02T04:39:03.726Z,0.00
2018-06-02T04:40:09.238Z,0.00
2018-06-02T04:41:14.759Z,0.00
2018-06-02T04:42:21.276Z,0.00
2018-06-02T04:43:25.787Z,0.00
2018-06-02T04:44:31.303Z,0.00
2018-06-02T04:45:36.834Z,5.63
2018-06-02T04:46:42.336Z,5.63
2018-06-02T04:47:47.859Z,5.63
2018-06-02T04:48:54.392Z,5.63
2018-06-02T04:49:58.884Z,5.63
2018-06-02T04:51:04.414Z,5.63
2018-06-02T04:52:09.932Z,5.63
2018-06-02T04:53:15.463Z,5.63
2018-06-02T04:54:20.968Z,5.63
2018-06-02T04:55:27.480Z,5.63
2018-06-02T04:56:31.988Z,5.63
2018-06-02T04:57:37.511Z,5.63
2018-06-02T04:58:43.025Z,5.63
2018-06-02T04:59:48.547Z,5.63
2018-06-02T05:00:54.111Z,5.63
2018-06-02T05:02:00.601Z,5.63
2018-06-02T05:03:05.100Z,5.63
2018-06-02T05:04:10.608Z,5.63
2018-06-02T05:05:16.161Z,5.63
2018-06-02T05:06:21.658Z,5.63
2018-06-02T05:07:27.278Z,5.63
2018-06-02T05:08:33.692Z,5.63
2018-06-02T05:09:38.212Z,5.63
2018-06-02T05:10:43.736Z,5.63
2018-06-02T05:11:49.231Z,5.63
2018-06-02T05:12:54.746Z,5.63
2018-06-02T05:14:00.273Z,5.63
2018-06-02T05:15:06.827Z,5.63
2018-06-02T05:16:11.303Z,5.63
2018-06-02T05:17:16.816Z,11.25
2018-06-02T05:18:22.345Z,11.25
2018-06-02T05:19:27.856Z,11.25
2018-06-02T05:20:33.369Z,11.25
2018-06-02T05:21:39.893Z,11.25
2018-06-02T05:22:44.492Z,11.25
2018-06-02T05:23:49.927Z,11.25
2018-06-02T05:24:55.437Z,16.88
2018-06-02T05:26:00.951Z,16.88
2018-06-02T05:27:06.473Z,16.88
2018-06-02T05:28:13.011Z,16.88
2018-06-02T05:29:17.513Z,16.88
2018-06-02T05:30:23.099Z,16.88
2018-06-02T05:31:28.543Z,16.88
2018-06-02T05:32:34.051Z,16.88
2018-06-02T05:33:39.587Z,16.88
2018-06-02T05:34:46.111Z,11.25
2018-06-02T05:35:50.639Z,11.25
2018-06-02T05:36:56.128Z,11.25
2018-06-02T05:38:01.645Z,11.25
2018-06-02T05:39:07.159Z,11.25
2018-06-02T05:40:12.703Z,11.25
2018-06-02T05:41:19.207Z,11.25
2018-06-02T05:42:23.718Z,11.25
2018-06-02T05:43:29.230Z,11.25
2018-06-02T05:44:34.760Z,11.25
2018-06-02T05:45:40.275Z,16.88
2018-06-02T05:46:45.779Z,16.88
2018-06-02T05:47:52.320Z,16.88
2018-06-02T05:48:56.822Z,16.88
2018-06-02T05:50:02.334Z,11.25
2018-06-02T05:51:07.847Z,16.88
2018-06-02T05:52:13.382Z,11.25
2018-06-02T05:53:18.880Z,11.25
2018-06-02T05:54:25.418Z,11.25
2018-06-02T05:55:29.921Z,16.88
2018-06-02T05:56:35.430Z,16.88
2018-06-02T05:57:40.957Z,16.88
2018-06-02T05:58:46.483Z,16.88
2018-06-02T05:59:52.038Z,11.25
2018-06-02T06:00:58.524Z,16.88
2018-06-02T06:02:03.028Z,16.88
2018-06-02T06:03:08.532Z,16.88
2018-06-02T06:04:14.060Z,16.88
2018-06-02T06:05:19.594Z,16.88
2018-06-02T06:06:25.082Z,16.88
2018-06-02T06:07:31.615Z,16.88
2018-06-02T06:08:36.211Z,22.50
2018-06-02T06:09:41.646Z,16.88
2018-06-02T06:10:47.167Z,16.88
2018-06-02T06:11:52.681Z,22.50
2018-06-02T06:12:58.200Z,22.50
2018-06-02T06:14:04.723Z,22.50
2018-06-02T06:15:09.227Z,22.50
2018-06-02T06:16:14.800Z,22.50
2018-06-02T06:17:20.273Z,22.50
2018-06-02T06:18:25.780Z,22.50
2018-06-02T06:19:31.303Z,22.50
2018-06-02T06:20:37.832Z,22.50
2018-06-02T06:21:42.339Z,16.88
2018-06-02T06:22:47.849Z,22.50
2018-06-02T06:23:53.420Z,22.50
2018-06-02T06:24:58.888Z,22.50
2018-06-02T06:26:04.401Z,22.50
2018-06-02T06:27:10.927Z,22.50
2018-06-02T06:28:15.441Z,28.13
2018-06-02T06:29:20.959Z,22.50
2018-06-02T06:30:26.470Z,22.50
2018-06-02T06:31:32.031Z,22.50
2018-06-02T06:32:37.515Z,28.13
2018-06-02T06:33:44.036Z,28.13
2018-06-02T06:34:48.558Z,28.13
2018-06-02T06:35:54.055Z,28.13
2018-06-02T06:36:59.589Z,28.13
2018-06-02T06:38:05.155Z,22.50
2018-06-02T06:39:10.673Z,22.50
2018-06-02T06:40:17.136Z,28.13
2018-06-02T06:41:21.643Z,28.13
2018-06-02T06:42:27.183Z,22.50
2018-06-02T06:43:32.669Z,22.50
2018-06-02T06:44:38.240Z,16.88
2018-06-02T06:45:43.835Z,22.50
2018-06-02T06:46:50.241Z,22.50
2018-06-02T06:47:54.753Z,16.88
2018-06-02T06:49:00.280Z,16.88
2018-06-02T06:50:05.787Z,11.25
2018-06-02T06:51:11.311Z,16.88
2018-06-02T06:52:16.825Z,22.50
2018-06-02T06:53:23.360Z,22.50
2018-06-02T06:54:27.856Z,22.50
2018-06-02T06:55:33.376Z,22.50
2018-06-02T06:56:38.886Z,22.50
2018-06-02T06:57:44.435Z,16.88
2018-06-02T06:58:49.930Z,16.88
2018-06-02T06:59:56.463Z,16.88
2018-06-02T07:01:00.972Z,16.88
2018-06-02T07:02:06.498Z,16.88
2018-06-02T07:03:12.002Z,16.88
2018-06-02T07:04:17.517Z,16.88
2018-06-02T07:05:23.034Z,16.88
2018-06-02T07:06:29.565Z,16.88
2018-06-02T07:07:34.069Z,11.25
2018-06-02T07:08:39.588Z,11.25
2018-06-02T07:09:45.118Z,11.25
2018-06-02T07:10:50.626Z,11.25
2018-06-02T07:11:56.159Z,11.25
2018-06-02T07:13:02.686Z,11.25
2018-06-02T07:14:07.175Z,11.25
2018-06-02T07:15:12.722Z,11.25
2018-06-02T07:16:18.209Z,11.25
2018-06-02T07:17:23.751Z,11.25
2018-06-02T07:18:29.250Z,11.25
2018-06-02T07:19:35.786Z,11.25
2018-06-02T07:20:40.279Z,16.88
2018-06-02T07:21:45.829Z,22.50
2018-06-02T07:22:51.310Z,28.13
2018-06-02T07:23:56.832Z,28.13
2018-06-02T07:25:02.352Z,28.13
2018-06-02T07:26:08.888Z,22.50
2018-06-02T07:27:13.380Z,22.50
2018-06-02T07:28:18.907Z,22.50
2018-06-02T07:29:24.438Z,22.50
2018-06-02T07:30:29.939Z,16.88
2018-06-02T07:31:35.460Z,16.88
2018-06-02T07:32:42.005Z,22.50
2018-06-02T07:33:46.501Z,22.50
2018-06-02T07:34:52.014Z,22.50
2018-06-02T07:35:57.536Z,16.88
2018-06-02T07:37:03.065Z,16.88
2018-06-02T07:38:08.582Z,16.88
2018-06-02T07:39:15.098Z,16.88
2018-06-02T07:40:19.597Z,22.50
2018-06-02T07:41:25.129Z,22.50
2018-06-02T07:42:30.644Z,22.50
2018-06-02T07:43:36.163Z,22.50
2018-06-02T07:44:41.685Z,22.50
2018-06-02T07:45:48.217Z,22.50
2018-06-02T07:46:52.713Z,22.50
2018-06-02T07:47:58.225Z,22.50
2018-06-02T07:49:03.743Z,22.50
2018-06-02T07:50:09.265Z,22.50
2018-06-02T07:51:14.787Z,22.50
2018-06-02T07:52:21.308Z,22.50
2018-06-02T07:53:25.812Z,28.13
2018-06-02T07:54:31.338Z,28.13
2018-06-02T07:55:36.862Z,22.50
2018-06-02T07:56:42.377Z,28.13
2018-06-02T07:57:47.899Z,28.13
2018-06-02T07:58:54.421Z,28.13
2018-06-02T07:59:58.933Z,22.50
2018-06-02T08:01:04.445Z,22.50
2018-06-02T08:02:09.974Z,22.50
2018-06-02T08:03:15.479Z,28.13
2018-06-02T08:04:20.992Z,28.13
2018-06-02T08:05:27.514Z,22.50
2018-06-02T08:06:32.025Z,22.50
2018-06-02T08:07:37.541Z,22.50
2018-06-02T08:08:43.101Z,22.50
2018-06-02T08:09:48.590Z,28.13
2018-06-02T08:10:54.110Z,28.13
2018-06-02T08:12:00.628Z,33.75
2018-06-02T08:13:05.135Z,45.00
2018-06-02T08:14:10.661Z,50.63
2018-06-02T08:15:16.182Z,50.63
2018-06-02T08:16:21.702Z,50.63
2018-06-02T08:17:27.208Z,56.25
2018-06-02T08:18:33.750Z,56.25
2018-06-02T08:19:38.245Z,56.25
2018-06-02T08:20:43.771Z,50.63
2018-06-02T08:21:49.279Z,50.63
2018-06-02T08:22:54.798Z,50.63
2018-06-02T08:24:00.335Z,50.63
2018-06-02T08:25:06.843Z,50.63
2018-06-02T08:26:11.357Z,50.63
2018-06-02T08:27:16.861Z,45.00
2018-06-02T08:28:22.393Z,45.00
2018-06-02T08:29:27.921Z,39.38
2018-06-02T08:30:33.426Z,45.00
2018-06-02T08:31:39.954Z,45.00
2018-06-02T08:32:44.463Z,50.63
2018-06-02T08:33:49.981Z,50.63
2018-06-02T08:34:55.508Z,56.25
2018-06-02T08:36:01.014Z,50.63
2018-06-02T08:37:06.527Z,50.63
2018-06-02T08:38:13.070Z,45.00
2018-06-02T08:39:17.573Z,45.00
2018-06-02T08:40:23.102Z,45.00
2018-06-02T08:41:28.608Z,45.00
2018-06-02T08:42:34.135Z,39.38
2018-06-02T08:43:39.643Z,33.75
2018-06-02T08:44:46.182Z,33.75
2018-06-02T08:45:50.696Z,33.75
2018-06-02T08:46:56.255Z,33.75
2018-06-02T08:48:01.740Z,28.13
2018-06-02T08:49:07.233Z,28.13
2018-06-02T08:50:12.756Z,28.13
2018-06-02T08:51:19.304Z,39.38
2018-06-02T08:52:23.790Z,45.00
2018-06-02T08:53:29.316Z,50.63
2018-06-02T08:54:34.907Z,50.63
2018-06-02T08:55:40.364Z,56.25
2018-06-02T08:56:45.867Z,56.25
2018-06-02T08:57:52.399Z,56.25
2018-06-02T08:58:56.910Z,56.25
2018-06-02T09:00:02.419Z,56.25
2018-06-02T09:01:07.946Z,56.25
2018-06-02T09:02:13.478Z,50.63
2018-06-02T09:03:18.984Z,50.63
2018-06-02T09:04:25.542Z,50.63
2018-06-02T09:05:30.048Z,45.00
2018-06-02T09:06:35.536Z,39.38
2018-06-02T09:07:41.059Z,33.75
2018-06-02T09:08:46.577Z,33.75
2018-06-02T09:09:52.095Z,39.38
2018-06-02T09:10:58.615Z,33.75
2018-06-02T09:12:03.131Z,33.75
2018-06-02T09:13:08.652Z,28.13
2018-06-02T09:14:14.166Z,33.75
2018-06-02T09:15:19.698Z,33.75
2018-06-02T09:16:25.292Z,39.38
2018-06-02T09:17:31.729Z,39.38
2018-06-02T09:18:36.241Z,33.75
2018-06-02T09:19:41.774Z,39.38
2018-06-02T09:20:47.267Z,39.38
2018-06-02T09:21:52.819Z,45.00
2018-06-02T09:22:58.315Z,45.00
2018-06-02T09:24:04.840Z,45.00
2018-06-02T09:25:09.360Z,39.38
2018-06-02T09:26:14.874Z,33.75
2018-06-02T09:27:20.399Z,22.50
2018-06-02T09:28:25.923Z,22.50
2018-06-02T09:29:31.442Z,28.13
2018-06-02T09:30:37.953Z,28.13
2018-06-02T09:31:42.468Z,28.13
2018-06-02T09:32:47.991Z,28.13
2018-06-02T09:33:53.514Z,28.13
2018-06-02T09:34:59.073Z,28.13
2018-06-02T09:36:04.541Z,39.38
2018-06-02T09:37:11.066Z,45.00
2018-06-02T09:38:15.577Z,45.00
2018-06-02T09:39:21.103Z,39.38
2018-06-02T09:40:26.626Z,39.38
2018-06-02T09:41:32.135Z,45.00
2018-06-02T09:42:37.662Z,39.38
2018-06-02T09:43:44.182Z,22.50
2018-06-02T09:44:48.702Z,28.13
2018-06-02T09:45:54.213Z,39.38
2018-06-02T09:46:59.738Z,45.00
2018-06-02T09:48:05.247Z,50.63
2018-06-02T09:49:10.758Z,33.75
2018-06-02T09:50:17.311Z,56.25
2018-06-02T09:51:21.801Z,39.38
2018-06-02T09:52:27.315Z,45.00
2018-06-02T09:53:32.825Z,56.25
2018-06-02T09:54:38.371Z,61.88
2018-06-02T09:55:43.877Z,67.50
2018-06-02T09:56:50.398Z,67.50
2018-06-02T09:57:54.907Z,67.50
2018-06-02T09:59:00.440Z,67.50
2018-06-02T10:00:05.957Z,67.50
2018-06-02T10:01:11.479Z,61.88
2018-06-02T10:02:17.066Z,61.88
2018-06-02T10:03:23.526Z,56.25
2018-06-02T10:04:28.024Z,56.25
2018-06-02T10:05:33.545Z,56.25
2018-06-02T10:06:39.061Z,56.25
2018-06-02T10:07:44.574Z,56.25
2018-06-02T10:08:50.224Z,56.25
2018-06-02T10:09:56.630Z,56.25
2018-06-02T10:11:01.141Z,56.25
2018-06-02T10:12:06.645Z,61.88
2018-06-02T10:13:12.181Z,56.25
2018-06-02T10:14:17.693Z,50.63
2018-06-02T10:15:23.214Z,50.63
2018-06-02T10:16:29.748Z,56.25
2018-06-02T10:17:34.242Z,56.25
2018-06-02T10:18:39.771Z,56.25
2018-06-02T10:19:45.294Z,56.25
2018-06-02T10:20:50.811Z,56.25
2018-06-02T10:21:56.319Z,56.25
2018-06-02T10:23:02.870Z,56.25
2018-06-02T10:24:07.363Z,56.25
2018-06-02T10:25:12.884Z,61.88
2018-06-02T10:26:18.400Z,61.88
2018-06-02T10:27:23.918Z,61.88
2018-06-02T10:28:29.447Z,61.88
2018-06-02T10:29:35.991Z,61.88
2018-06-02T10:30:40.472Z,56.25
2018-06-02T10:31:46.130Z,56.25
2018-06-02T10:32:51.625Z,50.63
2018-06-02T10:33:57.034Z,50.63
2018-06-02T10:35:02.569Z,50.63
2018-06-02T10:36:09.111Z,50.63
2018-06-02T10:37:13.594Z,50.63
2018-06-02T10:38:19.109Z,50.63
2018-06-02T10:39:24.662Z,50.63
2018-06-02T10:40:30.148Z,45.00
2018-06-02T10:41:35.689Z,45.00
2018-06-02T10:42:42.202Z,50.63
2018-06-02T10:43:46.774Z,50.63
2018-06-02T10:44:52.221Z,50.63
2018-06-02T10:45:57.752Z,50.63
2018-06-02T10:47:03.288Z,56.25
2018-06-02T10:48:08.807Z,56.25
2018-06-02T10:49:15.315Z,56.25
2018-06-02T10:50:19.827Z,56.25
2018-06-02T10:51:25.339Z,56.25
2018-06-02T10:52:30.875Z,50.63
2018-06-02T10:53:36.389Z,56.25
2018-06-02T10:54:41.896Z,45.00
2018-06-02T10:55:48.440Z,39.38
2018-06-02T10:56:52.943Z,39.38
2018-06-02T10:57:58.470Z,39.38
2018-06-02T10:59:03.987Z,39.38
2018-06-02T11:00:09.491Z,39.38
2018-06-02T11:01:15.025Z,39.38
2018-06-02T11:02:21.592Z,45.00
2018-06-02T11:03:26.070Z,50.63
2018-06-02T11:04:31.589Z,50.63
2018-06-02T11:05:37.096Z,45.00
2018-06-02T11:06:42.628Z,39.38
2018-06-02T11:07:48.128Z,39.38
2018-06-02T11:08:54.695Z,39.38
2018-06-02T11:09:59.177Z,39.38
2018-06-02T11:11:04.690Z,39.38
2018-06-02T11:12:10.221Z,45.00
2018-06-02T11:13:15.792Z,39.38
2018-06-02T11:14:21.321Z,39.38
2018-06-02T11:15:27.788Z,39.38
2018-06-02T11:16:32.329Z,33.75
2018-06-02T11:17:37.877Z,28.13
2018-06-02T11:18:43.418Z,28.13
2018-06-02T11:19:48.872Z,28.13
2018-06-02T11:20:54.363Z,28.13
2018-06-02T11:22:00.894Z,28.13
2018-06-02T11:23:05.416Z,22.50
2018-06-02T11:24:10.929Z,22.50
2018-06-02T11:25:16.458Z,22.50
2018-06-02T11:26:21.962Z,22.50
2018-06-02T11:27:27.488Z,22.50
2018-06-02T11:28:34.008Z,22.50
2018-06-02T11:29:38.529Z,22.50
2018-06-02T11:30:44.046Z,28.13
2018-06-02T11:31:49.571Z,28.13
2018-06-02T11:32:55.072Z,22.50
2018-06-02T11:34:00.628Z,28.13
2018-06-02T11:35:07.113Z,22.50
2018-06-02T11:36:11.639Z,28.13
2018-06-02T11:37:17.153Z,28.13
2018-06-02T11:38:22.965Z,39.38
2018-06-02T11:39:28.221Z,50.63
2018-06-02T11:40:33.726Z,50.63
2018-06-02T11:41:40.248Z,50.63
2018-06-02T11:42:44.760Z,56.25
2018-06-02T11:43:50.272Z,50.63
2018-06-02T11:44:55.892Z,50.63
2018-06-02T11:46:01.309Z,50.63
2018-06-02T11:47:06.826Z,50.63
2018-06-02T11:48:13.362Z,50.63
2018-06-02T11:49:17.898Z,45.00
2018-06-02T11:50:23.404Z,39.38
2018-06-02T11:51:28.906Z,39.38
2018-06-02T11:52:34.548Z,33.75
2018-06-02T11:53:40.040Z,28.13
2018-06-02T11:54:46.479Z,28.13
2018-06-02T11:55:51.000Z,28.13
2018-06-02T11:56:56.529Z,28.13
2018-06-02T11:58:02.020Z,28.13
2018-06-02T11:59:07.557Z,28.13
2018-06-02T12:00:13.063Z,28.13
2018-06-02T12:01:19.582Z,28.13
2018-06-02T12:02:24.079Z,16.88
2018-06-02T12:03:29.598Z,33.75
2018-06-02T12:04:35.128Z,33.75
2018-06-02T12:05:40.642Z,33.75
2018-06-02T12:06:46.165Z,33.75
2018-06-02T12:07:52.686Z,28.13
2018-06-02T12:08:57.207Z,28.13
2018-06-02T12:10:02.722Z,33.75
2018-06-02T12:11:08.249Z,33.75
2018-06-02T12:12:13.757Z,28.13
2018-06-02T12:13:19.289Z,28.13
2018-06-02T12:14:25.821Z,28.13
2018-06-02T12:15:30.326Z,28.13
2018-06-02T12:16:35.862Z,22.50
2018-06-02T12:17:41.357Z,22.50
2018-06-02T12:18:46.883Z,28.13
2018-06-02T12:19:52.390Z,28.13
2018-06-02T12:20:58.910Z,33.75
2018-06-02T12:22:03.428Z,39.38
2018-06-02T12:23:08.941Z,39.38
2018-06-02T12:24:14.458Z,39.38
2018-06-02T12:25:20.123Z,39.38
2018-06-02T12:26:25.516Z,45.00
2018-06-02T12:27:32.045Z,50.63
2018-06-02T12:28:36.536Z,50.63
2018-06-02T12:29:42.106Z,56.25
2018-06-02T12:30:47.581Z,56.25
2018-06-02T12:31:53.112Z,56.25
2018-06-02T12:32:58.618Z,56.25
2018-06-02T12:34:05.161Z,56.25
2018-06-02T12:35:09.649Z,56.25
2018-06-02T12:36:15.181Z,56.25
2018-06-02T12:37:20.696Z,56.25
2018-06-02T12:38:26.210Z,56.25
2018-06-02T12:39:31.735Z,56.25
2018-06-02T12:40:38.281Z,61.88
2018-06-02T12:41:42.792Z,73.13
2018-06-02T12:42:48.307Z,84.38
2018-06-02T12:43:53.810Z,95.63
2018-06-02T12:44:59.376Z,101.25
2018-06-02T12:46:04.858Z,101.25
2018-06-02T12:47:11.434Z,101.25
2018-06-02T12:48:15.902Z,101.25
2018-06-02T12:49:21.425Z,112.50
2018-06-02T12:50:26.914Z,112.50
2018-06-02T12:51:32.447Z,112.50
2018-06-02T12:52:37.971Z,112.50
2018-06-02T12:53:44.513Z,95.63
2018-06-02T12:54:49.006Z,106.88
2018-06-02T12:55:54.520Z,101.25
2018-06-02T12:57:00.061Z,78.75
2018-06-02T12:58:05.593Z,61.88
2018-06-02T12:59:11.084Z,67.50
2018-06-02T13:00:17.622Z,78.75
2018-06-02T13:01:22.136Z,84.38
2018-06-02T13:02:27.655Z,95.63
2018-06-02T13:03:33.171Z,101.25
2018-06-02T13:04:38.675Z,101.25
2018-06-02T13:05:44.191Z,118.13
2018-06-02T13:06:50.730Z,95.63
2018-06-02T13:07:55.258Z,112.50
2018-06-02T13:09:00.791Z,106.88
2018-06-02T13:10:06.286Z,106.88
2018-06-02T13:11:11.792Z,78.75
2018-06-02T13:12:17.329Z,73.13
2018-06-02T13:13:23.843Z,73.13
2018-06-02T13:14:28.365Z,90.00
2018-06-02T13:15:33.878Z,95.63
2018-06-02T13:16:39.391Z,101.25
2018-06-02T13:17:44.928Z,101.25
2018-06-02T13:18:50.438Z,95.63
2018-06-02T13:19:56.962Z,73.13
2018-06-02T13:21:01.473Z,73.13
2018-06-02T13:22:06.988Z,50.63
2018-06-02T13:23:12.518Z,56.25
2018-06-02T13:24:18.026Z,61.88
2018-06-02T13:25:23.575Z,67.50
2018-06-02T13:26:30.078Z,56.25
2018-06-02T13:27:34.591Z,61.88
2018-06-02T13:28:40.114Z,67.50
2018-06-02T13:29:45.636Z,90.00
2018-06-02T13:30:51.148Z,90.00
2018-06-02T13:31:56.701Z,78.75
2018-06-02T13:33:03.213Z,84.38
2018-06-02T13:34:07.719Z,84.38
2018-06-02T13:35:13.241Z,67.50
2018-06-02T13:36:18.749Z,73.13
2018-06-02T13:37:24.291Z,84.38
2018-06-02T13:38:29.805Z,78.75
2018-06-02T13:39:36.329Z,73.13
2018-06-02T13:40:40.864Z,73.13
2018-06-02T13:41:46.364Z,95.63
2018-06-02T13:42:51.874Z,90.00
2018-06-02T13:43:57.423Z,78.75
2018-06-02T13:45:02.918Z,78.75
2018-06-02T13:46:09.455Z,67.50
2018-06-02T13:47:13.951Z,61.88
2018-06-02T13:48:19.479Z,78.75
2018-06-02T13:49:24.994Z,67.50
2018-06-02T13:50:30.515Z,67.50
2018-06-02T13:51:36.049Z,73.13
2018-06-02T13:52:42.582Z,78.75
2018-06-02T13:53:47.074Z,78.75
2018-06-02T13:54:52.592Z,84.38
2018-06-02T13:55:58.112Z,67.50
2018-06-02T13:57:03.655Z,61.88
2018-06-02T13:58:09.177Z,61.88
2018-06-02T13:59:15.781Z,56.25
2018-06-02T14:00:20.194Z,56.25
2018-06-02T14:01:25.743Z,56.25
2018-06-02T14:02:31.327Z,50.63
2018-06-02T14:03:36.763Z,39.38
2018-06-02T14:04:42.300Z,45.00
2018-06-02T14:05:48.814Z,61.88
2018-06-02T14:06:53.320Z,56.25
2018-06-02T14:07:58.840Z,56.25
2018-06-02T14:09:04.373Z,56.25
2018-06-02T14:10:09.880Z,61.88
2018-06-02T14:11:15.419Z,61.88
2018-06-02T14:12:21.933Z,61.88
2018-06-02T14:13:26.448Z,61.88